Time;durP1;ratioP1;P1;durP2;ratioP2;P2;SDS_P1;SDS_P2;PMS_P1;PMS_P2;Temp;Humidity;BMP_temperature;BMP_pressure;BME280_temperature;BME280_humidity;BME280_pressure;Samples;Min_cycle;Max_cycle;Signal;HPM_P1;HPM_P2
2022/07/26 00:01:54;;;;;;;2.10;1.25;;;;;;;20.98;70.59;95781.56;5020288;28;24471;-72
2022/07/26 00:04:21;;;;;;;3.40;1.00;;;;;;;20.92;71.33;95776.16;5019084;28;24495;-71
2022/07/26 00:06:47;;;;;;;2.67;0.85;;;;;;;20.97;71.35;95781.75;5003112;28;24977;-71
2022/07/26 00:09:14;;;;;;;4.40;0.98;;;;;;;20.90;71.90;95797.34;5010852;28;24459;-72
2022/07/26 00:11:40;;;;;;;2.28;1.20;;;;;;;20.96;71.73;95796.72;5010444;28;24491;-71
2022/07/26 00:14:08;;;;;;;2.72;1.15;;;;;;;20.92;72.45;95787.50;5013141;28;24814;-72
2022/07/26 00:16:37;;;;;;;2.55;0.77;;;;;;;20.99;72.64;95788.50;5014350;28;25000;-71
2022/07/26 00:19:03;;;;;;;2.88;1.00;;;;;;;20.97;73.19;95787.84;5010203;28;24826;-71
2022/07/26 00:21:30;;;;;;;4.10;0.90;;;;;;;21.02;72.77;95793.47;5008727;28;24452;-71
2022/07/26 00:23:57;;;;;;;3.90;0.90;;;;;;;21.05;72.30;95794.94;5006954;28;24448;-71
2022/07/26 00:26:24;;;;;;;2.75;0.82;;;;;;;21.05;72.47;95800.19;5010500;28;25000;-72
2022/07/26 00:28:50;;;;;;;3.92;0.95;;;;;;;21.01;72.89;95791.78;5008756;28;25009;-71
2022/07/26 00:31:16;;;;;;;2.47;0.98;;;;;;;21.01;72.68;95810.22;5008930;28;24444;-71
2022/07/26 00:33:44;;;;;;;2.97;1.10;;;;;;;21.12;72.08;95816.19;5006115;28;24499;-71
2022/07/26 00:36:10;;;;;;;2.97;0.90;;;;;;;21.11;72.80;95810.09;5010601;28;24478;-71
2022/07/26 00:38:37;;;;;;;2.60;0.85;;;;;;;20.89;73.74;95806.25;5009018;28;24822;-71
2022/07/26 00:41:04;;;;;;;1.77;0.77;;;;;;;20.85;73.43;95810.19;5010524;28;24443;-71
2022/07/26 00:43:31;;;;;;;3.80;0.90;;;;;;;20.85;73.19;95815.44;5010021;28;24445;-71
2022/07/26 00:45:58;;;;;;;1.98;0.90;;;;;;;20.73;73.56;95812.28;5010200;28;24432;-71
2022/07/26 00:48:24;;;;;;;5.15;0.88;;;;;;;20.49;75.69;95826.13;5007263;28;24441;-71
2022/07/26 00:50:54;;;;;;;5.80;1.20;;;;;;;20.26;77.08;95815.25;5019797;28;24462;-71
2022/07/26 00:53:21;;;;;;;1.65;1.00;;;;;;;20.04;78.31;95821.84;5013857;28;24802;-71
2022/07/26 00:55:48;;;;;;;2.20;1.10;;;;;;;19.89;79.90;95818.13;5007710;28;24432;-71
2022/07/26 00:58:15;;;;;;;3.15;1.08;;;;;;;19.95;80.33;95812.28;5013056;28;24471;-72
2022/07/26 01:00:42;;;;;;;1.20;1.00;;;;;;;19.82;81.52;95823.16;5021381;28;24425;-71
2022/07/26 01:03:08;;;;;;;1.50;0.90;;;;;;;19.74;82.23;95817.84;5015324;28;24468;-71
2022/07/26 01:05:35;;;;;;;3.07;1.03;;;;;;;19.72;83.01;95818.97;5009753;28;24455;-71
2022/07/26 01:08:03;;;;;;;1.07;0.70;;;;;;;19.72;83.53;95824.22;5012844;28;25034;-71
2022/07/26 01:10:30;;;;;;;2.15;1.00;;;;;;;19.62;84.38;95824.31;5017062;28;24459;-71
2022/07/26 01:12:56;;;;;;;2.10;1.17;;;;;;;19.56;85.33;95817.00;5002858;28;24447;-71
2022/07/26 01:15:23;;;;;;;1.52;0.90;;;;;;;19.53;85.47;95812.03;5010013;28;24448;-71
2022/07/26 01:17:49;;;;;;;2.00;0.80;;;;;;;19.73;84.83;95810.13;5008305;28;24538;-71
2022/07/26 01:20:16;;;;;;;2.78;1.15;;;;;;;19.61;85.72;95809.47;5009937;28;24428;-71
2022/07/26 01:22:43;;;;;;;3.13;1.17;;;;;;;19.79;85.24;95812.13;5009617;28;24439;-71
2022/07/26 01:25:10;;;;;;;2.90;1.08;;;;;;;19.83;84.82;95818.72;5009746;28;24890;-71
2022/07/26 01:27:38;;;;;;;1.50;0.80;;;;;;;19.85;85.19;95826.47;5009736;28;24898;-71
2022/07/26 01:30:08;;;;;;;2.17;0.90;;;;;;;19.74;85.78;95811.78;5008580;28;24591;-71
2022/07/26 01:32:35;;;;;;;1.80;0.85;;;;;;;19.74;85.85;95812.59;5004733;28;24527;-71
2022/07/26 01:35:01;;;;;;;2.42;0.88;;;;;;;19.87;85.60;95814.00;5006245;28;24849;-71
2022/07/26 01:37:28;;;;;;;1.40;0.82;;;;;;;20.02;84.60;95815.94;5007820;28;24825;-71
2022/07/26 01:39:56;;;;;;;1.20;0.90;;;;;;;19.86;86.13;95812.34;5009619;28;24551;-70
2022/07/26 01:42:22;;;;;;;1.10;0.70;;;;;;;20.00;85.23;95810.00;5009608;28;24536;-70
2022/07/26 01:44:49;;;;;;;1.73;0.90;;;;;;;20.12;84.68;95812.38;5003640;28;24849;-71
2022/07/26 01:47:15;;;;;;;3.17;1.03;;;;;;;20.11;84.73;95816.00;5002055;28;24477;-71
2022/07/26 01:49:41;;;;;;;1.58;0.93;;;;;;;20.26;83.72;95812.63;5021932;28;25032;-71
2022/07/26 01:52:08;;;;;;;3.25;0.93;;;;;;;20.29;83.36;95806.25;5013459;28;25044;-71
2022/07/26 01:54:34;;;;;;;1.38;0.90;;;;;;;20.42;82.57;95811.09;5013997;28;25344;-71
2022/07/26 01:57:02;;;;;;;1.20;0.70;;;;;;;20.38;82.59;95820.25;5014004;28;24440;-71
2022/07/26 01:59:28;;;;;;;2.08;0.90;;;;;;;20.24;83.37;95824.28;5023024;28;24985;-71
2022/07/26 02:01:55;;;;;;;2.13;0.90;;;;;;;20.12;84.17;95826.34;5012827;28;24436;-71
2022/07/26 02:07:05;;;;;;;1.30;0.85;;;;;;;20.33;82.40;95810.22;5010904;28;24435;-71
2022/07/26 02:09:32;;;;;;;2.60;1.00;;;;;;;20.16;83.24;95813.72;5012985;28;24487;-71
2022/07/26 02:11:58;;;;;;;2.75;1.00;;;;;;;20.19;83.83;95805.53;5013247;28;24440;-71
2022/07/26 02:14:26;;;;;;;1.35;0.90;;;;;;;20.35;82.59;95817.94;5012881;28;24909;-71
2022/07/26 02:16:58;;;;;;;1.92;0.93;;;;;;;20.21;83.16;95821.97;5012182;28;25000;-71
2022/07/26 02:19:25;;;;;;;0.82;0.73;;;;;;;20.21;83.32;95822.81;5009391;28;25008;-71
2022/07/26 02:21:51;;;;;;;1.27;0.90;;;;;;;20.20;83.33;95830.84;5012601;28;24448;-71
2022/07/26 02:24:17;;;;;;;1.42;0.80;;;;;;;20.31;82.45;95827.94;5012884;28;24463;-71
2022/07/26 02:26:44;;;;;;;1.77;0.82;;;;;;;20.18;83.25;95819.66;5010811;28;24491;-71
2022/07/26 02:29:10;;;;;;;1.70;0.90;;;;;;;20.19;83.41;95814.22;5012486;28;24444;-72
2022/07/26 02:31:38;;;;;;;2.22;1.00;;;;;;;19.94;85.27;95815.03;5007260;28;24452;-71
2022/07/26 02:34:04;;;;;;;2.03;0.90;;;;;;;20.10;84.83;95811.69;5012666;28;24444;-71
2022/07/26 02:36:31;;;;;;;2.20;1.03;;;;;;;19.71;86.80;95809.44;5012385;28;25017;-71
2022/07/26 02:38:57;;;;;;;1.70;1.00;;;;;;;19.64;87.56;95805.75;5012428;28;24440;-71
2022/07/26 02:41:24;;;;;;;3.35;1.20;;;;;;;19.74;87.01;95809.16;5007223;28;24440;-71
2022/07/26 02:43:50;;;;;;;2.00;1.10;;;;;;;19.82;86.45;95807.41;5012635;28;24874;-71
2022/07/26 02:46:17;;;;;;;2.50;0.90;;;;;;;19.93;85.55;95806.31;5009859;28;24443;-71
2022/07/26 02:48:45;;;;;;;2.53;1.10;;;;;;;19.71;86.81;95805.00;5012086;28;24506;-71
2022/07/26 02:51:11;;;;;;;4.83;0.97;;;;;;;19.56;87.74;95802.06;5012318;28;24464;-71
2022/07/26 02:53:37;;;;;;;2.10;1.23;;;;;;;19.46;88.49;95806.56;5012457;28;24926;-71
2022/07/26 02:56:05;;;;;;;4.70;1.20;;;;;;;19.50;88.39;95807.91;5012669;28;24842;-71
2022/07/26 02:58:31;;;;;;;2.30;1.00;;;;;;;19.50;88.41;95802.66;5012002;28;24439;-71
2022/07/26 03:00:57;;;;;;;5.28;1.17;;;;;;;19.46;88.79;95793.41;5011857;28;24507;-71
2022/07/26 03:03:24;;;;;;;3.28;1.30;;;;;;;19.43;89.37;95793.75;5010460;28;24436;-71
2022/07/26 03:05:52;;;;;;;2.25;1.02;;;;;;;19.31;89.48;95798.38;5012497;28;24440;-70
2022/07/26 03:08:18;;;;;;;1.83;0.95;;;;;;;19.25;90.29;95800.78;5012083;28;24442;-70
2022/07/26 03:10:45;;;;;;;2.35;1.30;;;;;;;19.18;90.86;95802.34;5010329;28;24459;-70
2022/07/26 03:13:11;;;;;;;5.93;1.30;;;;;;;19.11;91.40;95796.88;5007335;28;25000;-71
2022/07/26 03:15:37;;;;;;;2.03;1.20;;;;;;;19.03;91.88;95792.34;5011549;28;24436;-71
2022/07/26 03:18:04;;;;;;;2.60;0.97;;;;;;;19.06;92.14;95797.31;5009254;28;24456;-71
2022/07/26 03:20:31;;;;;;;2.70;1.10;;;;;;;19.07;91.81;95806.84;5013653;28;24439;-71
2022/07/26 03:22:59;;;;;;;1.73;1.15;;;;;;;18.88;93.60;95816.63;5014824;28;24459;-71
2022/07/26 03:25:25;;;;;;;2.08;1.30;;;;;;;19.03;92.45;95810.72;5012593;28;25063;-70
2022/07/26 03:27:55;;;;;;;5.28;1.52;;;;;;;18.83;94.15;95814.41;5010678;28;24428;-70
2022/07/26 03:30:22;;;;;;;1.70;1.20;;;;;;;18.80;94.11;95814.72;5010373;28;24452;-71
2022/07/26 03:32:48;;;;;;;1.75;1.10;;;;;;;18.67;95.32;95809.78;5008717;28;24524;-71
2022/07/26 03:35:15;;;;;;;3.35;1.13;;;;;;;18.77;94.58;95813.22;5010420;28;24436;-70
2022/07/26 03:37:42;;;;;;;2.53;1.23;;;;;;;18.78;94.73;95806.16;5038644;22;25031;-72
2022/07/26 03:40:10;;;;;;;2.45;1.40;;;;;;;18.67;95.43;95808.97;5039782;28;24431;-72
2022/07/26 03:42:37;;;;;;;1.83;1.00;;;;;;;18.67;95.80;95806.34;5029399;28;24790;-72
2022/07/26 03:45:04;;;;;;;1.73;1.20;;;;;;;18.60;95.55;95796.41;5022251;28;24439;-71
2022/07/26 03:47:30;;;;;;;2.15;1.00;;;;;;;18.59;96.41;95815.75;5016830;28;25040;-71
2022/07/26 03:49:57;;;;;;;2.28;1.08;;;;;;;18.58;96.54;95803.63;5014297;28;24440;-71
2022/07/26 03:52:23;;;;;;;2.13;1.40;;;;;;;18.69;95.93;95801.75;5022591;28;24502;-71
2022/07/26 03:54:50;;;;;;;4.95;1.30;;;;;;;18.69;95.98;95812.25;5006067;28;24957;-71
2022/07/26 03:57:16;;;;;;;2.55;1.45;;;;;;;18.59;96.41;95818.38;5009677;28;25012;-71
2022/07/26 03:59:43;;;;;;;2.97;1.23;;;;;;;18.51;97.57;95815.66;5009058;28;24460;-72
2022/07/26 04:02:09;;;;;;;2.38;1.48;;;;;;;18.60;96.72;95814.78;5009806;28;24442;-72
2022/07/26 04:04:36;;;;;;;2.28;1.55;;;;;;;18.71;96.44;95810.34;5008941;28;24791;-72
2022/07/26 04:07:02;;;;;;;1.52;1.10;;;;;;;18.83;94.91;95810.00;5005468;28;24441;-72
2022/07/26 04:09:29;;;;;;;1.63;1.20;;;;;;;18.76;95.34;95814.19;5007615;28;24444;-71
2022/07/26 04:11:55;;;;;;;3.00;1.33;;;;;;;18.83;94.76;95819.66;5006909;28;24452;-72
2022/07/26 04:14:23;;;;;;;2.17;1.30;;;;;;;18.79;95.43;95821.75;5010914;28;24498;-73
2022/07/26 04:16:49;;;;;;;3.20;1.30;;;;;;;18.82;95.41;95828.53;5007493;28;24452;-73
2022/07/26 04:19:16;;;;;;;4.35;1.20;;;;;;;18.60;96.28;95820.00;5005131;28;24818;-75
2022/07/26 04:21:42;;;;;;;2.65;1.40;;;;;;;18.79;95.36;95820.94;5009078;28;24443;-72
2022/07/26 04:24:09;;;;;;;2.78;1.30;;;;;;;18.64;96.15;95823.19;5003549;28;24443;-74
2022/07/26 04:26:35;;;;;;;2.30;1.20;;;;;;;18.61;97.07;95826.94;4999063;28;24801;-74
2022/07/26 04:29:02;;;;;;;2.60;1.38;;;;;;;18.81;94.93;95822.44;5027224;28;24482;-74
2022/07/26 04:31:30;;;;;;;4.10;1.50;;;;;;;18.77;94.73;95825.53;5002486;28;24452;-74
2022/07/26 04:33:56;;;;;;;2.90;1.45;;;;;;;18.62;96.31;95819.88;5010725;28;24486;-75
2022/07/26 04:36:23;;;;;;;7.23;1.60;;;;;;;18.52;97.06;95817.28;5009782;28;24794;-74
2022/07/26 04:38:49;;;;;;;2.80;1.67;;;;;;;18.55;97.11;95824.88;5010294;28;24494;-73
2022/07/26 04:41:15;;;;;;;4.53;1.65;;;;;;;18.56;96.86;95831.78;5009563;28;24440;-73
2022/07/26 04:43:42;;;;;;;2.97;1.58;;;;;;;18.75;95.87;95836.13;5010655;28;24436;-74
2022/07/26 04:46:08;;;;;;;3.55;1.55;;;;;;;18.74;95.93;95837.13;5030149;28;24443;-74
2022/07/26 04:48:38;;;;;;;2.38;1.55;;;;;;;18.70;96.73;95830.47;5015620;28;24841;-74
2022/07/26 04:51:05;;;;;;;2.00;1.52;;;;;;;18.69;96.18;95838.47;5006408;28;25389;-73
2022/07/26 04:53:31;;;;;;;3.90;1.88;;;;;;;18.63;96.10;95840.72;5011756;28;24440;-74
2022/07/26 04:55:57;;;;;;;2.58;1.50;;;;;;;18.74;96.02;95841.53;5005935;28;24456;-74
2022/07/26 04:58:24;;;;;;;6.07;2.00;;;;;;;18.69;95.90;95831.47;5016433;28;24965;-73
2022/07/26 05:00:50;;;;;;;4.90;1.70;;;;;;;18.54;97.98;95831.09;5010583;28;24432;-73
2022/07/26 05:03:17;;;;;;;3.70;2.08;;;;;;;18.56;97.99;95838.81;5002085;28;24447;-73
2022/07/26 05:05:45;;;;;;;3.35;1.80;;;;;;;18.58;97.72;95836.88;4999349;28;24862;-73
2022/07/26 05:08:14;;;;;;;6.32;2.03;;;;;;;18.57;97.57;95837.84;5006695;28;24440;-73
2022/07/26 05:10:41;;;;;;;2.92;1.83;;;;;;;18.62;97.52;95835.63;5010131;28;24552;-73
2022/07/26 05:13:07;;;;;;;4.15;2.03;;;;;;;18.65;96.69;95837.13;5010249;28;24478;-73
2022/07/26 05:15:35;;;;;;;3.92;1.70;;;;;;;18.93;94.82;95846.69;5010036;28;24433;-74
2022/07/26 05:18:03;;;;;;;2.90;1.70;;;;;;;19.17;93.11;95850.56;5009356;28;24443;-74
2022/07/26 05:20:30;;;;;;;4.35;1.95;;;;;;;18.95;93.41;95852.63;5008119;28;24814;-74
2022/07/26 05:22:59;;;;;;;3.90;2.25;;;;;;;19.15;91.96;95845.47;5005180;28;24437;-74
2022/07/26 05:25:25;;;;;;;3.10;1.80;;;;;;;19.10;90.15;95847.72;5006867;28;24440;-73
2022/07/26 05:27:52;;;;;;;5.05;1.60;;;;;;;19.22;90.35;95843.09;5008804;28;25040;-74
2022/07/26 05:30:19;;;;;;;2.55;1.35;;;;;;;19.16;89.00;95844.50;5007642;28;24441;-73
2022/07/26 05:32:46;;;;;;;4.88;1.80;;;;;;;18.97;88.32;95848.06;5008178;28;24671;-72
2022/07/26 05:35:12;;;;;;;5.43;1.88;;;;;;;18.99;88.83;95856.63;5002614;28;24512;-73
2022/07/26 05:37:39;;;;;;;8.37;1.47;;;;;;;19.13;85.77;95847.41;5007504;28;24440;-73
2022/07/26 05:40:08;;;;;;;4.95;1.55;;;;;;;19.26;85.50;95854.94;5009770;28;24440;-73
2022/07/26 05:42:34;;;;;;;2.95;1.40;;;;;;;19.22;84.66;95857.03;5009167;28;25363;-73
2022/07/26 05:45:01;;;;;;;2.78;1.52;;;;;;;19.16;84.07;95854.16;5009532;28;24433;-73
2022/07/26 05:47:27;;;;;;;5.70;1.53;;;;;;;19.28;83.37;95858.25;5005179;28;24440;-73
2022/07/26 05:49:54;;;;;;;5.35;1.58;;;;;;;19.26;84.00;95858.41;5009363;28;24443;-72
2022/07/26 05:52:20;;;;;;;4.53;1.55;;;;;;;19.22;82.61;95843.91;5008982;28;25024;-72
2022/07/26 05:54:47;;;;;;;4.40;1.40;;;;;;;19.16;81.84;95847.13;5001892;28;24443;-69
2022/07/26 05:57:14;;;;;;;3.80;1.52;;;;;;;19.33;80.91;95846.31;4998816;28;24515;-74
2022/07/26 05:59:41;;;;;;;4.93;1.50;;;;;;;19.48;78.77;95851.91;5002164;28;24440;-73
2022/07/26 06:02:07;;;;;;;3.97;1.50;;;;;;;19.45;78.21;95848.75;5005685;28;24782;-77
2022/07/26 06:04:34;;;;;;;3.05;1.30;;;;;;;19.52;74.13;95855.88;5008445;28;24855;-74
2022/07/26 06:07:01;;;;;;;5.45;1.38;;;;;;;19.57;74.05;95856.25;5004046;28;24447;-73
2022/07/26 06:09:28;;;;;;;5.40;1.42;;;;;;;19.74;71.64;95857.25;5005233;28;24441;-74
2022/07/26 06:11:54;;;;;;;4.47;1.15;;;;;;;19.65;70.49;95863.41;5009359;28;24567;-73
2022/07/26 06:14:22;;;;;;;2.50;0.98;;;;;;;19.70;68.61;95862.97;5009056;28;24444;-73
2022/07/26 06:16:49;;;;;;;2.42;0.85;;;;;;;19.85;68.93;95866.72;5005132;28;24443;-73
2022/07/26 06:19:15;;;;;;;2.78;1.05;;;;;;;20.14;67.03;95858.59;5001592;28;24440;-74
2022/07/26 06:21:44;;;;;;;1.48;0.80;;;;;;;20.05;67.48;95856.84;5004502;28;24436;-74
2022/07/26 06:24:11;;;;;;;1.65;0.82;;;;;;;20.14;65.32;95858.59;5004998;28;24440;-73
2022/07/26 06:26:37;;;;;;;3.20;1.00;;;;;;;20.32;63.95;95861.19;5005976;28;24443;-73
2022/07/26 06:29:04;;;;;;;5.40;1.00;;;;;;;20.23;64.23;95859.47;5008160;28;24436;-74
2022/07/26 06:31:32;;;;;;;3.80;0.82;;;;;;;20.31;62.66;95860.31;5007455;28;24452;-74
2022/07/26 06:33:59;;;;;;;2.15;1.00;;;;;;;20.43;62.64;95860.94;5004131;28;24475;-74
2022/07/26 06:36:25;;;;;;;4.38;1.13;;;;;;;20.39;61.69;95862.19;5005658;28;24451;-74
2022/07/26 06:38:53;;;;;;;3.87;0.93;;;;;;;20.57;59.77;95861.34;5010994;28;25203;-74
2022/07/26 06:41:20;;;;;;;3.10;1.05;;;;;;;20.42;59.83;95866.31;5009302;28;24443;-74
2022/07/26 06:43:46;;;;;;;2.83;0.90;;;;;;;20.17;60.97;95860.06;5010706;28;24440;-73
2022/07/26 06:46:13;;;;;;;2.30;0.80;;;;;;;20.50;60.22;95866.41;5008911;28;24498;-71
2022/07/26 06:48:40;;;;;;;4.15;1.00;;;;;;;20.97;59.48;95866.81;5010378;28;24444;-72
2022/07/26 06:51:08;;;;;;;7.35;1.00;;;;;;;20.98;57.13;95860.56;5006230;28;24444;-72
2022/07/26 06:53:35;;;;;;;4.95;0.82;;;;;;;21.13;56.44;95865.22;5010362;28;24444;-72
2022/07/26 06:56:02;;;;;;;6.07;0.93;;;;;;;21.17;55.48;95869.19;5011808;28;25009;-72
2022/07/26 06:58:28;;;;;;;23.58;1.20;;;;;;;21.29;54.49;95872.38;5011197;28;24433;-72
2022/07/26 07:00:54;;;;;;;3.40;0.85;;;;;;;20.83;55.52;95862.13;5011807;28;24498;-72
2022/07/26 07:03:21;;;;;;;2.47;1.00;;;;;;;20.40;56.08;95866.50;5011763;28;24490;-72
2022/07/26 07:05:49;;;;;;;1.55;0.85;;;;;;;20.59;56.71;95868.13;5003188;28;24479;-72
2022/07/26 07:08:15;;;;;;;3.47;0.82;;;;;;;20.84;56.00;95866.44;5004561;28;24447;-72
2022/07/26 07:10:42;;;;;;;2.70;0.82;;;;;;;20.77;55.74;95865.41;5011620;28;24498;-73
2022/07/26 07:13:08;;;;;;;5.45;1.30;;;;;;;21.10;55.25;95868.19;5011891;28;24826;-74
2022/07/26 07:15:35;;;;;;;3.50;1.00;;;;;;;21.10;53.91;95865.53;5012204;28;24444;-74
2022/07/26 07:18:01;;;;;;;3.47;0.97;;;;;;;21.20;53.99;95866.25;5011138;28;24491;-73
2022/07/26 07:20:28;;;;;;;2.00;0.70;;;;;;;20.99;54.47;95867.50;5012050;28;24498;-73
2022/07/26 07:22:56;;;;;;;2.42;0.80;;;;;;;21.12;54.44;95874.13;5011833;28;24440;-73
2022/07/26 07:25:23;;;;;;;2.97;0.90;;;;;;;20.85;54.41;95865.44;5004244;28;24448;-73
2022/07/26 07:27:49;;;;;;;3.33;1.13;;;;;;;21.07;53.45;95865.88;4999946;28;24490;-73
2022/07/26 07:30:16;;;;;;;3.10;1.00;;;;;;;20.84;53.73;95868.22;5011587;28;24859;-73
2022/07/26 07:32:43;;;;;;;4.27;0.90;;;;;;;20.99;53.42;95871.94;4995462;28;24586;-73
2022/07/26 07:35:10;;;;;;;1.55;0.80;;;;;;;21.03;53.12;95874.09;5011038;28;25007;-73
2022/07/26 07:37:36;;;;;;;3.30;1.00;;;;;;;21.30;52.59;95877.47;5011622;28;24440;-74
2022/07/26 07:40:07;;;;;;;4.22;0.85;;;;;;;21.26;52.32;95868.25;5011657;28;24440;-74
2022/07/26 07:42:33;;;;;;;2.20;0.63;;;;;;;21.50;51.50;95865.69;5007726;28;24490;-74
2022/07/26 07:45:00;;;;;;;7.53;1.30;;;;;;;21.39;52.38;95863.34;5007741;28;24448;-74
2022/07/26 07:47:26;;;;;;;2.75;0.77;;;;;;;21.47;51.96;95863.41;5010633;28;24490;-74
2022/07/26 07:49:53;;;;;;;1.85;0.93;;;;;;;21.59;52.11;95873.63;5004030;28;24432;-74
2022/07/26 07:52:19;;;;;;;2.28;0.90;;;;;;;21.58;51.76;95864.06;5003482;28;24511;-74
2022/07/26 07:54:45;;;;;;;4.78;0.98;;;;;;;21.56;51.86;95852.88;5011462;28;24440;-75
2022/07/26 07:57:13;;;;;;;10.43;1.20;;;;;;;21.32;52.40;95864.13;5009526;28;24441;-75
2022/07/26 07:59:40;;;;;;;2.20;0.98;;;;;;;21.39;53.13;95871.25;5011279;28;24539;-72
2022/07/26 08:02:08;;;;;;;2.28;0.93;;;;;;;21.46;52.22;95864.38;5003205;28;24443;-74
2022/07/26 08:04:34;;;;;;;1.88;1.00;;;;;;;21.58;51.86;95853.53;5010936;28;24432;-74
2022/07/26 08:07:01;;;;;;;1.83;0.80;;;;;;;21.04;53.08;95859.13;5008349;28;24463;-74
2022/07/26 08:09:27;;;;;;;3.30;0.90;;;;;;;20.71;53.98;95863.41;5010232;28;24455;-73
2022/07/26 08:11:54;;;;;;;2.10;0.70;;;;;;;20.69;54.71;95852.19;5003545;28;25052;-74
2022/07/26 08:14:21;;;;;;;3.17;1.10;;;;;;;20.88;54.28;95859.06;5011246;28;25000;-74
2022/07/26 08:16:48;;;;;;;4.80;1.38;;;;;;;20.74;53.78;95856.03;5001738;28;24453;-74
2022/07/26 08:19:14;;;;;;;2.38;1.13;;;;;;;20.81;54.02;95858.84;5007619;28;24460;-74
2022/07/26 08:21:41;;;;;;;3.50;1.08;;;;;;;21.58;52.38;95864.06;5011448;28;24830;-75
2022/07/26 08:24:09;;;;;;;3.83;0.90;;;;;;;21.96;51.79;95863.47;5011467;28;24444;-74
2022/07/26 08:26:36;;;;;;;4.40;1.30;;;;;;;22.16;50.55;95857.88;5009564;28;24456;-74
2022/07/26 08:29:02;;;;;;;2.38;1.10;;;;;;;21.87;50.96;95869.72;5010496;28;24432;-74
2022/07/26 08:31:30;;;;;;;5.15;1.23;;;;;;;21.33;51.41;95869.28;5010408;28;24494;-74
2022/07/26 08:33:57;;;;;;;2.83;1.07;;;;;;;21.08;52.57;95870.16;5008853;28;24492;-74
2022/07/26 08:36:23;;;;;;;2.53;1.00;;;;;;;21.40;51.23;95872.94;5010753;28;24517;-73
2022/07/26 08:38:51;;;;;;;4.53;1.10;;;;;;;21.38;50.40;95871.44;5010313;28;24502;-74
2022/07/26 08:41:17;;;;;;;4.50;0.98;;;;;;;;;;5011245;28;24450;-73
2022/07/26 08:43:44;;;;;;;2.92;0.90;;;;;;;22.03;49.01;95862.81;5006622;28;24447;-73
2022/07/26 08:46:10;;;;;;;1.63;0.73;;;;;;;21.59;50.62;95873.63;5011331;28;24993;-74
2022/07/26 08:48:38;;;;;;;2.97;0.95;;;;;;;21.91;48.73;95864.94;5011576;28;24443;-73
2022/07/26 08:51:08;;;;;;;3.13;0.93;;;;;;;22.07;48.51;95878.13;5011535;28;24465;-74
2022/07/26 08:53:36;;;;;;;1.70;0.90;;;;;;;21.97;47.98;95874.84;5008797;28;25108;-73
2022/07/26 08:56:03;;;;;;;2.35;0.90;;;;;;;22.13;47.59;95869.53;5011248;28;24441;-73
2022/07/26 08:58:32;;;;;;;1.83;0.73;;;;;;;22.57;46.42;95865.75;5000802;28;24440;-75
2022/07/26 09:01:07;;;;;;;2.78;1.20;;;;;;;22.56;46.51;95874.66;5003912;28;24439;-74
2022/07/26 09:03:36;;;;;;;2.03;1.00;;;;;;;22.90;46.09;95877.88;5006075;28;24433;-74
2022/07/26 09:06:13;;;;;;;2.30;0.90;;;;;;;22.84;45.58;95873.28;5006192;28;24533;-74
2022/07/26 09:08:40;;;;;;;5.90;1.50;;;;;;;22.31;47.49;95871.22;5009385;28;24546;-74
2022/07/26 09:11:29;;;;;;;2.10;1.10;;;;;;;22.18;47.57;95874.38;5011137;28;24447;-74
2022/07/26 09:13:57;;;;;;;3.60;0.90;;;;;;;21.57;49.40;95883.50;5006466;28;24459;-74
2022/07/26 09:16:25;;;;;;;2.00;1.10;;;;;;;21.74;48.99;95885.19;5008385;28;24448;-74
2022/07/26 09:18:51;;;;;;;2.78;1.05;;;;;;;21.71;48.25;95864.44;5010552;28;24508;-74
2022/07/26 09:21:30;;;;;;;5.60;1.20;;;;;;;21.84;48.48;95880.59;5010528;28;24841;-74
2022/07/26 09:23:57;;;;;;;3.58;0.95;;;;;;;21.79;48.59;95885.53;5010211;28;24448;-74
2022/07/26 09:26:24;;;;;;;1.52;1.00;;;;;;;21.85;48.40;95884.88;5009271;28;24437;-74
2022/07/26 09:29:05;;;;;;;2.28;0.93;;;;;;;21.56;48.68;95892.41;5009476;28;24570;-74
2022/07/26 09:31:32;;;;;;;2.50;0.90;;;;;;;21.68;48.84;95885.84;5007096;28;24443;-74
2022/07/26 09:33:59;;;;;;;1.48;0.75;;;;;;;21.75;48.94;95892.09;5009439;28;24830;-73
2022/07/26 09:36:27;;;;;;;2.58;1.10;;;;;;;22.08;48.50;95886.88;5009395;28;24476;-74
2022/07/26 09:38:57;;;;;;;5.20;0.82;;;;;;;21.75;48.22;95887.66;5009626;28;24492;-74
2022/07/26 09:41:26;;;;;;;3.58;0.88;;;;;;;21.81;47.84;95875.66;5006597;28;24985;-74
2022/07/26 09:43:54;;;;;;;4.40;1.05;;;;;;;21.98;47.19;95893.13;5003047;28;24429;-74
2022/07/26 09:46:21;;;;;;;1.77;0.70;;;;;;;22.29;46.98;95894.34;5062905;22;24487;-74
2022/07/26 09:48:48;;;;;;;1.95;0.75;;;;;;;21.36;47.36;95900.59;5032921;28;24443;-74
2022/07/26 09:51:14;;;;;;;1.02;0.65;;;;;;;21.73;47.30;95902.81;5018271;28;24893;-74
2022/07/26 09:53:42;;;;;;;6.10;0.93;;;;;;;21.89;46.50;95912.56;5023062;28;24455;-74
2022/07/26 09:56:10;;;;;;;2.70;0.90;;;;;;;22.51;45.18;95906.00;5023155;28;24475;-74
2022/07/26 09:58:37;;;;;;;2.15;1.00;;;;;;;22.81;45.12;95909.75;5021818;28;24432;-74
2022/07/26 10:01:04;;;;;;;3.05;0.80;;;;;;;22.44;45.17;95898.75;5026012;28;24436;-74
2022/07/26 10:03:31;;;;;;;1.75;0.80;;;;;;;22.55;45.13;95900.25;5026978;28;24555;-74
2022/07/26 10:05:57;;;;;;;5.88;0.95;;;;;;;23.04;44.23;95913.34;5026528;28;24519;-73
2022/07/26 10:08:24;;;;;;;3.83;0.90;;;;;;;22.79;44.58;95922.31;5027684;28;24797;-74
2022/07/26 10:10:54;;;;;;;2.03;0.97;;;;;;;23.02;44.62;95917.16;5026881;28;24470;-74
2022/07/26 10:13:23;;;;;;;3.10;1.00;;;;;;;23.21;44.29;95908.81;5025761;28;25076;-74
2022/07/26 10:15:51;;;;;;;2.30;0.90;;;;;;;22.95;43.63;95914.34;5029701;28;24555;-74
2022/07/26 10:18:43;;;;;;;5.30;1.02;;;;;;;23.42;42.96;95901.13;5029183;28;24459;-74
2022/07/26 10:21:21;;;;;;;2.65;1.05;;;;;;;23.98;42.35;95908.94;5032410;28;25027;-75
2022/07/26 10:23:49;;;;;;;2.15;0.82;;;;;;;23.47;41.98;95910.38;5030430;28;24443;-75
2022/07/26 10:26:37;;;;;;;2.08;0.93;;;;;;;23.34;42.65;95900.38;5034209;28;24550;-75
2022/07/26 10:32:19;;;;;;;2.03;1.02;;;;;;;23.60;40.65;95900.88;5093183;27;20766;-75
2022/07/26 10:34:47;;;;;;;1.65;0.75;;;;;;;23.67;40.37;95901.06;5093690;28;24430;-75
2022/07/26 10:37:26;;;;;;;1.38;0.77;;;;;;;23.93;40.58;95905.19;5092477;28;24473;-76
2022/07/26 10:40:19;;;;;;;3.03;0.68;;;;;;;24.04;40.66;95904.78;5085042;28;24499;-75
2022/07/26 10:42:46;;;;;;;1.83;0.68;;;;;;;23.81;40.47;95907.41;5094246;28;24469;-76
2022/07/26 10:45:18;;;;;;;2.67;0.82;;;;;;;23.59;42.28;95912.47;5074739;22;25011;-76
2022/07/26 10:48:14;;;;;;;1.17;0.80;;;;;;;23.67;43.74;95914.28;5045671;28;24443;-75
2022/07/26 10:50:42;;;;;;;2.47;0.85;;;;;;;23.35;43.28;95910.75;5045125;28;24448;-75
2022/07/26 10:53:10;;;;;;;3.53;1.00;;;;;;;23.14;43.74;95921.91;5040776;28;24837;-75
2022/07/26 10:55:48;;;;;;;1.23;0.73;;;;;;;22.69;44.00;95918.03;5034455;28;24474;-76
2022/07/26 10:58:14;;;;;;;1.25;0.70;;;;;;;22.82;43.43;95922.78;5032457;28;24478;-76
2022/07/26 11:00:41;;;;;;;2.20;0.87;;;;;;;22.71;43.71;95920.50;5030956;28;24817;-75
2022/07/26 11:03:07;;;;;;;1.55;0.70;;;;;;;22.64;43.96;95911.59;5032824;28;24490;-75
2022/07/26 11:05:35;;;;;;;2.80;0.93;;;;;;;23.62;42.19;95925.34;5031612;28;24467;-75
2022/07/26 11:08:07;;;;;;;3.80;0.77;;;;;;;23.38;42.15;95913.06;5032157;28;24479;-75
2022/07/26 11:10:36;;;;;;;1.55;1.00;;;;;;;23.88;42.17;95929.53;5038437;28;24447;-74
2022/07/26 11:13:18;;;;;;;1.42;0.82;;;;;;;23.72;41.67;95921.69;5036433;28;24432;-75
2022/07/26 11:15:47;;;;;;;2.97;0.80;;;;;;;23.64;42.41;95917.22;5035492;28;25011;-75
2022/07/26 11:18:21;;;;;;;2.43;0.70;;;;;;;24.22;42.25;95910.59;5033758;28;24437;-75
2022/07/26 11:20:51;;;;;;;1.73;0.70;;;;;;;23.48;42.63;95914.69;5031936;28;24436;-74
2022/07/26 11:23:29;;;;;;;1.10;0.70;;;;;;;23.46;43.75;95916.66;5028867;28;24482;-75
2022/07/26 11:26:17;;;;;;;2.37;0.90;;;;;;;22.94;42.91;95908.25;5034421;28;24436;-74
2022/07/26 11:29:02;;;;;;;1.30;0.70;;;;;;;23.01;43.83;95910.22;5037197;28;25046;-74
2022/07/26 11:31:36;;;;;;;2.90;0.90;;;;;;;23.63;43.38;95915.59;5032499;28;24883;-75
2022/07/26 11:34:04;;;;;;;1.57;0.63;;;;;;;23.91;41.76;95915.94;5024298;28;24499;-75
2022/07/26 11:36:37;;;;;;;2.05;0.82;;;;;;;23.77;40.42;95920.16;5030290;28;24794;-76
2022/07/26 11:39:06;;;;;;;2.10;0.82;;;;;;;23.43;41.43;95921.31;5021473;28;24482;-76
2022/07/26 11:41:33;;;;;;;1.63;0.70;;;;;;;23.98;39.96;95916.06;5024051;28;24429;-76
2022/07/26 11:44:00;;;;;;;1.60;0.63;;;;;;;24.25;40.39;95912.03;5015018;28;24522;-75